Time,TemperatureF,DewpointF,PressureIn,WindDirection,WindDirectionDegrees,WindSpeedMPH,WindSpeedGustMPH,Humidity,HourlyPrecipIn,Conditions,Clouds,dailyrainin,SoftwareType,DateUTC
2013-07-19 00:02:00,79.0,-99.9,30.01,South,180,5.0,7.0,-999,-99.99,,,-99.99,,2013-07-19 04:02:00,
2013-07-19 00:22:00,79.0,-99.9,30.01,South,188,5.0,8.0,-999,-99.99,,,-99.99,,2013-07-19 04:22:00,
2013-07-19 00:52:00,79.0,-99.9,30.01,SSW,196,8.0,12.0,-999,-99.99,,,-99.99,,2013-07-19 04:52:00,
2013-07-19 01:02:00,79.0,-99.9,30.00,SSW,200,7.0,11.0,-999,-99.99,,,-99.99,,2013-07-19 05:02:00,
2013-07-19 01:32:00,79.0,-99.9,30.01,SSW,212,9.0,12.0,-999,-99.99,,,-99.99,,2013-07-19 05:32:00,
2013-07-19 02:01:00,79.0,-99.9,30.01,SW,215,9.0,12.0,-999,-99.99,,,-99.99,,2013-07-19 06:01:00,
2013-07-19 02:33:00,78.0,-99.9,30.01,SW,224,7.0,10.0,-999,-99.99,,,-99.99,,2013-07-19 06:33:00,
2013-07-19 03:01:00,78.0,-99.9,30.00,SW,215,10.0,13.0,-999,-99.99,,,-99.99,,2013-07-19 07:01:00,
2013-07-19 03:33:00,77.0,-99.9,30.01,SW,219,6.0,9.0,-999,-99.99,,,-99.99,,2013-07-19 07:33:00,
2013-07-19 03:43:00,78.0,-99.9,30.00,SSW,213,6.0,9.0,-999,-99.99,,,-99.99,,2013-07-19 07:43:00,
2013-07-19 04:02:00,78.0,-99.9,30.00,SW,222,6.0,9.0,-999,-99.99,,,-99.99,,2013-07-19 08:02:00,
2013-07-19 04:43:00,78.0,-99.9,30.00,SW,220,9.0,11.0,-999,-99.99,,,-99.99,,2013-07-19 08:43:00,
2013-07-19 06:01:00,77.0,-99.9,30.00,SW,216,6.0,9.0,-999,-99.99,,,-99.99,,2013-07-19 10:01:00,
2013-07-19 06:43:00,77.0,-99.9,30.00,SW,216,7.0,9.0,-999,-99.99,,,-99.99,,2013-07-19 10:43:00,
2013-07-19 07:12:00,77.0,-99.9,30.00,SW,220,6.0,9.0,-999,-99.99,,,-99.99,,2013-07-19 11:12:00,
2013-07-19 08:02:00,78.0,-99.9,30.00,SW,225,8.0,12.0,-999,-99.99,,,-99.99,,2013-07-19 12:02:00,
2013-07-19 09:02:00,79.0,-99.9,30.00,SW,222,9.0,13.0,-999,-99.99,,,-99.99,,2013-07-19 13:02:00,
2013-07-19 09:12:00,80.0,-99.9,30.00,SW,214,10.0,13.0,-999,-99.99,,,-99.99,,2013-07-19 13:12:00,
2013-07-19 10:02:00,81.0,-99.9,30.00,SW,227,8.0,11.0,-999,-99.99,,,-99.99,,2013-07-19 14:02:00,
2013-07-19 10:12:00,80.0,-99.9,30.00,SW,232,9.0,12.0,-999,-99.99,,,-99.99,,2013-07-19 14:12:00,
2013-07-19 10:33:00,82.0,-99.9,29.99,SW,231,9.0,12.0,-999,-99.99,,,-99.99,,2013-07-19 14:33:00,
2013-07-19 10:43:00,83.0,-99.9,29.99,SW,225,9.0,11.0,-999,-99.99,,,-99.99,,2013-07-19 14:43:00,
2013-07-19 11:02:00,84.0,-99.9,29.99,SW,225,10.0,13.0,-999,-99.99,,,-99.99,,2013-07-19 15:02:00,
2013-07-19 12:01:00,84.0,-99.9,29.99,SW,227,7.0,9.0,-999,-99.99,,,-99.99,,2013-07-19 16:01:00,
2013-07-19 12:22:00,85.0,-99.9,29.99,SW,236,7.0,9.0,-999,-99.99,,,-99.99,,2013-07-19 16:22:00,
2013-07-19 12:32:00,85.0,-99.9,29.98,SW,233,8.0,10.0,-999,-99.99,,,-99.99,,2013-07-19 16:32:00,
2013-07-19 12:43:00,87.0,-99.9,29.98,SW,220,7.0,10.0,-999,-99.99,,,-99.99,,2013-07-19 16:43:00,
2013-07-19 13:02:00,88.0,-99.9,29.98,SW,228,5.0,7.0,-999,-99.99,,,-99.99,,2013-07-19 17:02:00,
2013-07-19 13:12:00,87.0,-99.9,29.97,SSW,194,6.0,8.0,-999,-99.99,,,-99.99,,2013-07-19 17:12:00,
2013-07-19 13:22:00,87.0,-99.9,29.97,SSW,204,5.0,11.0,-999,-99.99,,,-99.99,,2013-07-19 17:22:00,
2013-07-19 13:32:00,86.0,-99.9,29.97,South,173,9.0,11.0,-999,-99.99,,,-99.99,,2013-07-19 17:32:00,
2013-07-19 13:43:00,86.0,-99.9,29.96,South,179,8.0,12.0,-999,-99.99,,,-99.99,,2013-07-19 17:43:00,
2013-07-19 14:01:00,86.0,-99.9,29.96,South,190,9.0,13.0,-999,-99.99,,,-99.99,,2013-07-19 18:01:00,
2013-07-19 14:43:00,84.0,-99.9,29.94,South,174,13.0,17.0,-999,-99.99,,,-99.99,,2013-07-19 18:43:00,
2013-07-19 15:01:00,85.0,-99.9,29.94,South,175,13.0,16.0,-999,-99.99,,,-99.99,,2013-07-19 19:01:00,
2013-07-19 16:02:00,83.0,-99.9,29.92,South,175,13.0,19.0,-999,-99.99,,,-99.99,,2013-07-19 20:02:00,
2013-07-19 16:23:00,83.0,-99.9,29.91,South,180,10.0,13.0,-999,-99.99,,,-99.99,,2013-07-19 20:23:00,
2013-07-19 16:43:00,83.0,-99.9,29.90,South,177,12.0,16.0,-999,-99.99,,,-99.99,,2013-07-19 20:43:00,
2013-07-19 17:02:00,82.0,-99.9,29.89,South,171,11.0,15.0,-999,-99.99,,,-99.99,,2013-07-19 21:02:00,
2013-07-19 17:22:00,82.0,-99.9,29.89,South,179,10.0,14.0,-999,-99.99,,,-99.99,,2013-07-19 21:22:00,
2013-07-19 18:01:00,82.0,-99.9,29.88,South,185,9.0,13.0,-999,-99.99,,,-99.99,,2013-07-19 22:01:00,
2013-07-19 18:43:00,82.0,-99.9,29.87,South,179,11.0,15.0,-999,-99.99,,,-99.99,,2013-07-19 22:43:00,
2013-07-19 18:52:00,82.0,-99.9,29.88,South,189,9.0,11.0,-999,-99.99,,,-99.99,,2013-07-19 22:52:00,
2013-07-19 19:02:00,81.0,-99.9,29.88,South,187,7.0,10.0,-999,-99.99,,,-99.99,,2013-07-19 23:02:00,
2013-07-19 19:52:00,82.0,-99.9,29.88,SW,219,9.0,13.0,-999,-99.99,,,-99.99,,2013-07-19 23:52:00,
2013-07-19 20:01:00,81.0,-99.9,29.88,SW,219,9.0,12.0,-999,-99.99,,,-99.99,,2013-07-20 00:01:00,
2013-07-19 20:11:00,82.0,-99.9,29.87,SW,218,8.0,10.0,-999,-99.99,,,-99.99,,2013-07-20 00:11:00,
2013-07-19 20:32:00,81.0,-99.9,29.88,SW,223,9.0,12.0,-999,-99.99,,,-99.99,,2013-07-20 00:32:00,
2013-07-19 20:43:00,80.0,-99.9,29.88,SW,228,9.0,11.0,-999,-99.99,,,-99.99,,2013-07-20 00:43:00,
2013-07-19 20:52:00,80.0,-99.9,29.88,SW,232,8.0,11.0,-999,-99.99,,,-99.99,,2013-07-20 00:52:00,
2013-07-19 21:01:00,80.0,-99.9,29.89,SW,228,8.0,11.0,-999,-99.99,,,-99.99,,2013-07-20 01:01:00,
2013-07-19 21:32:00,81.0,-99.9,29.89,SW,224,9.0,13.0,-999,-99.99,,,-99.99,,2013-07-20 01:32:00,
2013-07-19 21:52:00,82.0,-99.9,29.89,SW,216,7.0,10.0,-999,-99.99,,,-99.99,,2013-07-20 01:52:00,
2013-07-19 22:02:00,82.0,-99.9,29.89,SW,215,8.0,10.0,-999,-99.99,,,-99.99,,2013-07-20 02:02:00,
2013-07-19 22:11:00,82.0,-99.9,29.89,South,175,4.0,7.0,-999,-99.99,,,-99.99,,2013-07-20 02:11:00,
2013-07-19 22:44:00,83.0,-99.9,29.88,SW,216,11.0,13.0,-999,-99.99,,,-99.99,,2013-07-20 02:44:00,
2013-07-19 23:02:00,81.0,-99.9,29.88,SW,214,10.0,13.0,-999,-99.99,,,-99.99,,2013-07-20 03:02:00,
2013-07-19 23:32:00,82.0,-99.9,29.87,SW,215,11.0,15.0,-999,-99.99,,,-99.99,,2013-07-20 03:32:00,
2013-07-19 23:44:00,81.0,-99.9,29.87,SW,219,9.0,13.0,-999,-99.99,,,-99.99,,2013-07-20 03:44:00,